createdAt,value
2018-02-21T05:00:51.324Z,0
2018-02-21T05:01:16.847Z,0
2018-02-21T05:01:42.325Z,0
2018-02-21T05:02:07.834Z,0
2018-02-21T05:02:33.321Z,0
2018-02-21T05:02:58.894Z,0
2018-02-21T05:03:24.348Z,0
2018-02-21T05:03:50.014Z,0
2018-02-21T05:04:15.528Z,0
2018-02-21T05:04:40.923Z,0
2018-02-21T05:05:06.591Z,0
2018-02-21T05:05:32.057Z,0
2018-02-21T05:05:57.536Z,0
2018-02-21T05:06:23.120Z,0
2018-02-21T05:06:48.650Z,0
2018-02-21T05:07:14.097Z,0
2018-02-21T05:07:39.600Z,0
2018-02-21T05:08:05.112Z,0
2018-02-21T05:09:19.209Z,0
2018-02-21T05:09:44.726Z,0
2018-02-21T05:10:10.229Z,0
2018-02-21T05:10:35.764Z,0
2018-02-21T05:11:01.231Z,0
2018-02-21T05:11:26.721Z,0
2018-02-21T05:11:52.520Z,0
2018-02-21T05:12:18.185Z,0
2018-02-21T05:12:43.775Z,0
2018-02-21T05:13:09.250Z,0
2018-02-21T05:13:34.776Z,0
2018-02-21T05:14:00.197Z,0
2018-02-21T05:14:25.680Z,0
2018-02-21T05:14:51.191Z,0
2018-02-21T05:15:16.632Z,0
2018-02-21T05:15:42.126Z,0
2018-02-21T05:16:07.610Z,0
2018-02-21T05:16:33.158Z,0
2018-02-21T05:16:58.652Z,0
2018-02-21T05:17:24.130Z,0
2018-02-21T05:17:49.665Z,0
2018-02-21T05:18:15.134Z,0
2018-02-21T05:18:40.594Z,0
2018-02-21T05:19:06.085Z,0
2018-02-21T05:19:31.703Z,0
2018-02-21T05:19:57.141Z,0
2018-02-21T05:20:22.705Z,0
2018-02-21T05:21:31.728Z,0
2018-02-21T05:21:57.240Z,0
2018-02-21T05:22:22.711Z,0
2018-02-21T05:22:48.173Z,0
2018-02-21T05:23:13.723Z,0
2018-02-21T05:23:39.205Z,0
2018-02-21T05:24:04.747Z,0
2018-02-21T05:24:30.202Z,0
2018-02-21T05:24:55.662Z,0
2018-02-21T05:25:21.196Z,0
2018-02-21T05:25:46.699Z,0
2018-02-21T05:26:12.152Z,0
2018-02-21T05:26:37.632Z,0
2018-02-21T05:27:03.072Z,0
2018-02-21T05:27:28.566Z,0
2018-02-21T05:27:54.061Z,0
2018-02-21T05:28:19.553Z,0
2018-02-21T05:28:45.080Z,0
2018-02-21T05:29:10.545Z,0
2018-02-21T05:29:36.048Z,0
2018-02-21T05:30:01.538Z,0
2018-02-21T05:30:27.026Z,0
2018-02-21T05:30:52.505Z,0
2018-02-21T05:31:18.009Z,0
2018-02-21T05:31:43.488Z,0
2018-02-21T05:32:09.025Z,0
2018-02-21T05:32:34.471Z,0
2018-02-21T05:32:59.989Z,0
2018-02-21T05:33:25.512Z,0
2018-02-21T05:33:51.059Z,0
2018-02-21T05:34:16.516Z,0
2018-02-21T05:34:41.985Z,0
2018-02-21T05:35:07.506Z,0
2018-02-21T05:35:33.004Z,0
2018-02-21T05:35:58.578Z,0
2018-02-21T05:36:24.075Z,0
2018-02-21T05:36:49.552Z,0
2018-02-21T05:37:15.042Z,0
2018-02-21T05:37:40.499Z,0
2018-02-21T05:38:06.066Z,0
2018-02-21T05:38:31.586Z,0
2018-02-21T05:38:57.229Z,0
2018-02-21T05:39:22.694Z,0
2018-02-21T05:39:48.302Z,0
2018-02-21T05:40:13.772Z,0
2018-02-21T05:40:39.297Z,0
2018-02-21T05:41:04.877Z,0
2018-02-21T05:41:30.375Z,0
2018-02-21T05:41:55.899Z,0
2018-02-21T05:42:21.343Z,0
2018-02-21T05:42:46.816Z,0
2018-02-21T05:43:12.343Z,0
2018-02-21T05:43:37.810Z,0
2018-02-21T05:44:03.295Z,0
2018-02-21T05:44:28.734Z,0
2018-02-21T05:44:54.230Z,0
2018-02-21T05:45:19.730Z,0
2018-02-21T05:45:45.248Z,0
2018-02-21T05:46:10.698Z,0
2018-02-21T05:46:36.210Z,0
2018-02-21T05:47:01.690Z,0
2018-02-21T05:47:27.208Z,0
2018-02-21T05:47:52.721Z,0
2018-02-21T05:48:18.267Z,0
2018-02-21T05:48:43.807Z,0
2018-02-21T05:49:09.263Z,0
2018-02-21T05:49:34.758Z,0
2018-02-21T05:50:00.353Z,0
2018-02-21T05:50:25.905Z,0
2018-02-21T05:50:51.384Z,0
2018-02-21T05:51:16.824Z,0
2018-02-21T05:51:42.313Z,0
2018-02-21T05:52:07.769Z,0
2018-02-21T05:53:36.936Z,0
2018-02-21T05:54:02.491Z,0
2018-02-21T05:54:27.949Z,0
2018-02-21T05:54:53.440Z,0
2018-02-21T05:55:18.924Z,0
2018-02-21T05:55:44.400Z,0
2018-02-21T05:56:09.876Z,0
2018-02-21T05:56:35.316Z,0
2018-02-21T05:57:00.796Z,0
2018-02-21T05:57:26.335Z,0
2018-02-21T05:57:51.758Z,0
2018-02-21T05:58:17.308Z,0
2018-02-21T05:58:42.720Z,0
2018-02-21T06:00:06.713Z,0
2018-02-21T06:00:32.195Z,0
2018-02-21T06:00:57.677Z,0
2018-02-21T06:01:23.167Z,0
2018-02-21T06:01:48.608Z,0
2018-02-21T06:02:14.068Z,0
2018-02-21T06:02:39.551Z,0
2018-02-21T06:03:05.121Z,0
2018-02-21T06:03:30.638Z,0
2018-02-21T06:03:56.115Z,0
2018-02-21T06:04:21.759Z,0
2018-02-21T06:04:47.153Z,0
2018-02-21T06:05:12.696Z,0
2018-02-21T06:05:38.115Z,0
2018-02-21T06:06:03.719Z,0
2018-02-21T06:06:29.150Z,0
2018-02-21T06:06:54.640Z,0
2018-02-21T06:07:20.143Z,0
2018-02-21T06:07:45.600Z,0
2018-02-21T06:08:11.119Z,0
2018-02-21T06:08:36.552Z,0
2018-02-21T06:09:02.087Z,0
2018-02-21T06:09:27.542Z,0
2018-02-21T06:09:53.024Z,0
2018-02-21T06:10:18.615Z,0
2018-02-21T06:10:44.085Z,0
2018-02-21T06:11:09.596Z,0
2018-02-21T06:11:35.058Z,0
2018-02-21T06:12:00.519Z,0
2018-02-21T06:12:25.986Z,0
2018-02-21T06:12:51.465Z,0
2018-02-21T06:13:16.910Z,0
2018-02-21T06:13:42.375Z,0
2018-02-21T06:14:07.891Z,0
2018-02-21T06:14:33.364Z,0
2018-02-21T06:14:58.855Z,0
2018-02-21T06:15:24.329Z,0
2018-02-21T06:15:49.812Z,0
2018-02-21T06:16:15.330Z,0
2018-02-21T06:16:40.879Z,0
2018-02-21T06:17:06.305Z,0
2018-02-21T06:17:31.783Z,0
2018-02-21T06:17:57.236Z,0
2018-02-21T06:18:22.710Z,0
2018-02-21T06:18:48.255Z,0
2018-02-21T06:19:13.752Z,0
2018-02-21T06:19:39.201Z,0
2018-02-21T06:20:04.666Z,0
2018-02-21T06:20:30.176Z,0
2018-02-21T06:20:55.658Z,0
2018-02-21T06:21:21.171Z,0
2018-02-21T06:21:46.649Z,0
2018-02-21T06:22:56.345Z,0
2018-02-21T06:23:21.837Z,0
2018-02-21T06:23:47.349Z,0
2018-02-21T06:24:12.947Z,0
2018-02-21T06:24:38.362Z,0
2018-02-21T06:25:03.793Z,0
2018-02-21T06:25:29.261Z,0
2018-02-21T06:25:54.764Z,0
2018-02-21T06:26:20.241Z,0
2018-02-21T06:26:45.743Z,0
2018-02-21T06:27:11.221Z,0
2018-02-21T06:27:36.664Z,0
2018-02-21T06:28:02.362Z,0
2018-02-21T06:28:27.892Z,0
2018-02-21T06:28:53.330Z,5
2018-02-21T06:29:18.797Z,5
2018-02-21T06:29:44.317Z,5
2018-02-21T06:30:09.760Z,5
2018-02-21T06:30:35.252Z,5
2018-02-21T06:31:00.747Z,5
2018-02-21T06:31:26.214Z,5
2018-02-21T06:31:51.694Z,5
2018-02-21T06:32:17.178Z,5
2018-02-21T06:32:42.650Z,5
2018-02-21T06:33:08.159Z,5
2018-02-21T06:33:33.648Z,5
2018-02-21T06:33:59.162Z,5
2018-02-21T06:34:24.641Z,5
2018-02-21T06:34:50.104Z,5
2018-02-21T06:35:15.575Z,5
2018-02-21T06:35:41.062Z,5
2018-02-21T06:36:06.561Z,5
2018-02-21T06:36:32.085Z,5
2018-02-21T06:36:57.551Z,5
2018-02-21T06:37:23.075Z,5
2018-02-21T06:37:48.570Z,10
2018-02-21T06:38:14.031Z,10
2018-02-21T06:38:39.579Z,10
2018-02-21T06:39:05.130Z,10
2018-02-21T06:39:30.616Z,10
2018-02-21T06:39:56.122Z,10
2018-02-21T06:40:21.634Z,10
2018-02-21T06:40:47.169Z,10
2018-02-21T06:41:12.633Z,10
2018-02-21T06:41:38.135Z,10
2018-02-21T06:42:03.606Z,10
2018-02-21T06:43:33.063Z,10
2018-02-21T06:43:58.548Z,10
2018-02-21T06:44:24.025Z,10
2018-02-21T06:44:49.519Z,15
2018-02-21T06:45:14.986Z,15
2018-02-21T06:45:40.507Z,15
2018-02-21T06:46:05.978Z,15
2018-02-21T06:46:31.510Z,15
2018-02-21T06:46:57.001Z,15
2018-02-21T06:47:23.427Z,15
2018-02-21T06:47:48.951Z,15
2018-02-21T06:48:14.464Z,15
2018-02-21T06:48:39.941Z,15
2018-02-21T06:49:05.396Z,15
2018-02-21T06:49:30.896Z,15
2018-02-21T06:49:56.406Z,15
2018-02-21T06:50:21.885Z,20
2018-02-21T06:50:47.380Z,20
2018-02-21T06:51:12.934Z,20
2018-02-21T06:51:38.472Z,20
2018-02-21T06:52:03.939Z,20
2018-02-21T06:52:29.399Z,20
2018-02-21T06:52:54.886Z,20
2018-02-21T06:53:20.327Z,20
2018-02-21T06:53:45.833Z,20
2018-02-21T06:54:11.444Z,20
2018-02-21T06:54:36.915Z,25
2018-02-21T06:55:02.356Z,25
2018-02-21T06:56:16.128Z,25
2018-02-21T06:56:41.616Z,25
2018-02-21T06:57:07.114Z,25
2018-02-21T06:57:32.597Z,25
2018-02-21T06:58:56.557Z,25
2018-02-21T06:59:22.035Z,25
2018-02-21T06:59:47.526Z,25
2018-02-21T07:00:13.028Z,30
2018-02-21T07:00:38.440Z,30
2018-02-21T07:01:03.892Z,30
2018-02-21T07:01:29.427Z,30
2018-02-21T07:01:54.925Z,30
2018-02-21T07:02:20.513Z,30
2018-02-21T07:02:46.019Z,30
2018-02-21T07:03:11.520Z,30
2018-02-21T07:03:36.991Z,30
2018-02-21T07:04:02.482Z,35
2018-02-21T07:04:27.954Z,35
2018-02-21T07:04:53.429Z,35
2018-02-21T07:05:18.909Z,35
2018-02-21T07:05:44.379Z,35
2018-02-21T07:06:09.865Z,35
2018-02-21T07:06:35.354Z,35
2018-02-21T07:07:00.867Z,40
2018-02-21T07:07:26.361Z,40
2018-02-21T07:07:51.855Z,40
2018-02-21T07:08:17.350Z,40
2018-02-21T07:08:42.838Z,40
2018-02-21T07:09:08.348Z,40
2018-02-21T07:09:33.842Z,40
2018-02-21T07:09:59.293Z,40
2018-02-21T07:10:24.754Z,40
2018-02-21T07:10:50.235Z,40
2018-02-21T07:11:15.750Z,40
2018-02-21T07:11:41.226Z,45
2018-02-21T07:12:06.716Z,45
2018-02-21T07:12:32.204Z,45
2018-02-21T07:12:57.663Z,45
2018-02-21T07:13:23.136Z,45
2018-02-21T07:13:48.686Z,45
2018-02-21T07:14:14.103Z,45
2018-02-21T07:14:39.615Z,45
2018-02-21T07:15:05.108Z,45
2018-02-21T07:15:30.626Z,45
2018-02-21T07:15:56.099Z,45
2018-02-21T07:16:21.544Z,45
2018-02-21T07:17:30.236Z,50
2018-02-21T07:17:55.708Z,50
2018-02-21T07:18:21.249Z,50
2018-02-21T07:18:46.755Z,50
2018-02-21T07:19:12.198Z,50
2018-02-21T07:19:37.672Z,50
2018-02-21T07:20:03.149Z,50
2018-02-21T07:20:28.646Z,50
2018-02-21T07:20:54.172Z,50
2018-02-21T07:21:19.692Z,50
2018-02-21T07:21:45.186Z,50
2018-02-21T07:22:10.696Z,55
2018-02-21T07:22:36.114Z,55
2018-02-21T07:23:01.604Z,55
2018-02-21T07:23:27.143Z,55
2018-02-21T07:23:52.573Z,55
2018-02-21T07:24:18.011Z,55
2018-02-21T07:24:43.470Z,55
2018-02-21T07:25:08.951Z,55
2018-02-21T07:25:34.428Z,55
2018-02-21T07:25:59.980Z,55
2018-02-21T07:26:25.499Z,55
2018-02-21T07:26:50.986Z,55
2018-02-21T07:27:16.466Z,55
2018-02-21T07:27:41.949Z,55
2018-02-21T07:28:07.396Z,60
2018-02-21T07:28:32.869Z,60
2018-02-21T07:28:58.368Z,60
2018-02-21T07:29:23.845Z,60
2018-02-21T07:29:49.317Z,60
2018-02-21T07:31:03.062Z,60
2018-02-21T07:31:28.555Z,60
2018-02-21T07:31:54.037Z,60
2018-02-21T07:32:19.538Z,60
2018-02-21T07:32:45.000Z,60
2018-02-21T07:33:10.519Z,60
2018-02-21T07:33:36.007Z,60
2018-02-21T07:34:01.464Z,60
2018-02-21T07:34:26.973Z,65
2018-02-21T07:34:52.463Z,65
2018-02-21T07:35:17.942Z,65
2018-02-21T07:35:43.438Z,65
2018-02-21T07:36:08.953Z,65
2018-02-21T07:36:34.448Z,65
2018-02-21T07:36:59.930Z,65
2018-02-21T07:37:25.402Z,65
2018-02-21T07:37:50.877Z,65
2018-02-21T07:38:16.428Z,65
2018-02-21T07:38:41.908Z,70
2018-02-21T07:39:07.413Z,70
2018-02-21T07:39:32.929Z,70
2018-02-21T07:39:58.420Z,70
2018-02-21T07:40:23.914Z,70
2018-02-21T07:40:49.418Z,70
2018-02-21T07:42:08.316Z,70
2018-02-21T07:42:33.832Z,70
2018-02-21T07:42:59.356Z,70
2018-02-21T07:43:24.849Z,75
2018-02-21T07:43:50.338Z,75
2018-02-21T07:44:15.840Z,75
2018-02-21T07:44:41.349Z,75
2018-02-21T07:45:06.835Z,75
2018-02-21T07:45:32.315Z,75
2018-02-21T07:45:57.788Z,75
2018-02-21T07:46:23.268Z,75
2018-02-21T07:46:48.751Z,75
2018-02-21T07:47:14.232Z,75
2018-02-21T07:47:39.678Z,75
2018-02-21T07:48:05.128Z,75
2018-02-21T07:48:30.621Z,75
2018-02-21T07:48:56.074Z,75
2018-02-21T07:49:21.550Z,80
2018-02-21T07:49:47.026Z,80
2018-02-21T07:50:12.485Z,80
2018-02-21T07:51:36.482Z,80
2018-02-21T07:52:01.979Z,80
2018-02-21T07:52:27.490Z,80
2018-02-21T07:52:52.973Z,80
2018-02-21T07:53:18.458Z,80
2018-02-21T07:53:43.957Z,80
2018-02-21T07:54:09.456Z,80
2018-02-21T07:54:35.005Z,80
2018-02-21T07:55:00.440Z,80
2018-02-21T07:55:25.891Z,80
2018-02-21T07:55:51.386Z,80
2018-02-21T07:56:16.881Z,85
2018-02-21T07:56:42.395Z,85
2018-02-21T07:57:07.856Z,85
2018-02-21T07:57:33.328Z,85
2018-02-21T07:57:58.825Z,85
2018-02-21T07:58:24.271Z,85
2018-02-21T07:58:49.762Z,85
2018-02-21T07:59:15.250Z,85
2018-02-21T07:59:40.760Z,85
2018-02-21T08:00:06.219Z,85
2018-02-21T08:00:31.666Z,85
2018-02-21T08:00:57.174Z,85
2018-02-21T08:02:26.273Z,85
2018-02-21T08:02:51.745Z,85
2018-02-21T08:03:17.220Z,85
2018-02-21T08:03:42.732Z,85
2018-02-21T08:04:08.226Z,85
2018-02-21T08:04:33.673Z,85
2018-02-21T08:04:59.232Z,90
2018-02-21T08:05:24.660Z,90
2018-02-21T08:05:50.160Z,90
2018-02-21T08:06:15.628Z,90
2018-02-21T08:06:41.081Z,90
2018-02-21T08:08:00.017Z,90
2018-02-21T08:08:25.505Z,90
2018-02-21T08:08:50.977Z,90
2018-02-21T08:09:16.449Z,90
2018-02-21T08:09:41.952Z,90
2018-02-21T08:10:07.463Z,90
2018-02-21T08:10:32.950Z,90
2018-02-21T08:10:58.417Z,90
2018-02-21T08:11:23.917Z,90
2018-02-21T08:11:49.411Z,90
2018-02-21T08:12:14.850Z,95
2018-02-21T08:12:40.365Z,95
2018-02-21T08:13:05.825Z,95
2018-02-21T08:13:31.313Z,95
2018-02-21T08:13:56.771Z,95
2018-02-21T08:14:22.289Z,95
2018-02-21T08:14:47.872Z,95
2018-02-21T08:15:13.384Z,95
2018-02-21T08:15:38.866Z,90
2018-02-21T08:16:04.339Z,95
2018-02-21T08:16:29.813Z,95
2018-02-21T08:16:55.308Z,95
2018-02-21T08:17:20.799Z,95
2018-02-21T08:17:46.257Z,95
2018-02-21T08:18:11.752Z,95
2018-02-21T08:18:37.205Z,100
2018-02-21T08:19:02.728Z,100
2018-02-21T08:19:28.279Z,100
2018-02-21T08:19:53.736Z,100
2018-02-21T08:20:19.296Z,100
2018-02-21T08:20:44.814Z,100
2018-02-21T08:21:10.285Z,100
2018-02-21T08:21:35.785Z,100
2018-02-21T08:22:01.268Z,100
2018-02-21T08:22:26.733Z,105
2018-02-21T08:22:52.267Z,105
2018-02-21T08:23:17.736Z,105
2018-02-21T08:23:43.264Z,105
2018-02-21T08:24:08.753Z,105
2018-02-21T08:24:34.244Z,105
2018-02-21T08:24:59.714Z,110
2018-02-21T08:25:25.215Z,110
2018-02-21T08:25:50.654Z,110
2018-02-21T08:26:16.141Z,110
2018-02-21T08:26:41.629Z,110
2018-02-21T08:27:07.176Z,110
2018-02-21T08:27:32.635Z,115
2018-02-21T08:27:58.095Z,115
2018-02-21T08:28:23.637Z,115
2018-02-21T08:28:49.127Z,115
2018-02-21T08:29:14.610Z,115
2018-02-21T08:29:40.135Z,120
2018-02-21T08:30:05.610Z,115
2018-02-21T08:30:31.038Z,115
2018-02-21T08:30:56.558Z,115
2018-02-21T08:31:22.033Z,115
2018-02-21T08:32:30.747Z,115
2018-02-21T08:32:56.293Z,115
2018-02-21T08:33:21.707Z,115
2018-02-21T08:33:47.183Z,115
2018-02-21T08:34:12.676Z,115
2018-02-21T08:34:38.183Z,115
2018-02-21T08:35:03.642Z,115
2018-02-21T08:35:29.122Z,115
2018-02-21T08:35:54.594Z,120
2018-02-21T08:36:20.075Z,120
2018-02-21T08:36:45.555Z,120
2018-02-21T08:37:11.060Z,120
2018-02-21T08:37:36.564Z,120
2018-02-21T08:38:02.066Z,120
2018-02-21T08:39:15.846Z,120
2018-02-21T08:39:41.370Z,120
2018-02-21T08:40:06.849Z,120
2018-02-21T08:40:32.370Z,120
2018-02-21T08:40:57.846Z,125
2018-02-21T08:41:23.345Z,125
2018-02-21T08:41:48.839Z,125
2018-02-21T08:42:14.337Z,125
2018-02-21T08:42:39.805Z,125
2018-02-21T08:43:05.287Z,125
2018-02-21T08:43:30.736Z,130
2018-02-21T08:43:56.227Z,130
2018-02-21T08:44:21.679Z,135
2018-02-21T08:44:47.189Z,130
2018-02-21T08:46:01.002Z,125
2018-02-21T08:46:26.476Z,125
2018-02-21T08:46:51.922Z,125
2018-02-21T08:47:17.414Z,125
2018-02-21T08:47:42.835Z,130
2018-02-21T08:48:08.372Z,130
2018-02-21T08:48:33.919Z,135
2018-02-21T08:48:59.376Z,130
2018-02-21T08:49:24.821Z,130
2018-02-21T08:49:50.362Z,130
2018-02-21T08:50:15.872Z,125
2018-02-21T08:50:41.378Z,125
2018-02-21T08:51:06.907Z,125
2018-02-21T08:51:32.400Z,120
2018-02-21T08:51:57.879Z,120
2018-02-21T08:52:23.336Z,120
2018-02-21T08:52:48.827Z,120
2018-02-21T08:53:14.295Z,120
2018-02-21T08:53:39.806Z,120
2018-02-21T08:54:58.741Z,120
2018-02-21T08:55:24.230Z,120
2018-02-21T08:55:49.731Z,120
2018-02-21T08:56:15.200Z,120
2018-02-21T08:56:40.684Z,120
2018-02-21T08:57:06.193Z,120
2018-02-21T08:57:31.707Z,120
2018-02-21T08:57:57.274Z,120
2018-02-21T08:58:22.725Z,120
2018-02-21T08:58:48.259Z,120
2018-02-21T08:59:13.814Z,120
2018-02-21T08:59:39.202Z,120
2018-02-21T09:00:04.697Z,120
2018-02-21T09:00:30.156Z,120
2018-02-21T09:00:55.611Z,120
2018-02-21T09:01:21.124Z,120
2018-02-21T09:01:46.621Z,120
2018-02-21T09:02:12.059Z,120
2018-02-21T09:02:37.534Z,120
2018-02-21T09:03:02.994Z,120
2018-02-21T09:03:28.485Z,120
2018-02-21T09:03:53.964Z,120
2018-02-21T09:04:19.468Z,120
2018-02-21T09:04:44.962Z,120
2018-02-21T09:05:10.466Z,120
2018-02-21T09:05:35.944Z,120
2018-02-21T09:06:01.402Z,115
2018-02-21T09:06:26.895Z,120
2018-02-21T09:06:52.361Z,120
2018-02-21T09:07:17.878Z,120
2018-02-21T09:07:43.383Z,120
2018-02-21T09:08:08.868Z,120
2018-02-21T09:08:34.333Z,115
2018-02-21T09:08:59.804Z,115
2018-02-21T09:09:25.322Z,120
2018-02-21T09:09:50.808Z,120
2018-02-21T09:10:16.327Z,120
2018-02-21T09:10:41.824Z,115
2018-02-21T09:11:07.369Z,115
2018-02-21T09:11:32.863Z,115
2018-02-21T09:11:58.369Z,115
2018-02-21T09:12:23.861Z,115
2018-02-21T09:12:49.306Z,115
2018-02-21T09:13:14.848Z,115
2018-02-21T09:13:40.332Z,115
2018-02-21T09:14:05.832Z,115
2018-02-21T09:15:34.910Z,120
2018-02-21T09:16:00.418Z,120
2018-02-21T09:16:25.916Z,120
2018-02-21T09:16:51.377Z,120
2018-02-21T09:17:16.902Z,120
2018-02-21T09:17:42.369Z,120
2018-02-21T09:18:07.837Z,120
2018-02-21T09:18:33.344Z,120
2018-02-21T09:18:58.851Z,120
2018-02-21T09:19:24.328Z,120
2018-02-21T09:19:49.846Z,120
2018-02-21T09:20:15.368Z,120
2018-02-21T09:20:40.789Z,120
2018-02-21T09:21:06.255Z,120
2018-02-21T09:21:31.810Z,120
2018-02-21T09:21:57.226Z,120
2018-02-21T09:22:22.748Z,120
2018-02-21T09:22:48.248Z,120
2018-02-21T09:23:13.764Z,120
2018-02-21T09:23:39.232Z,120
2018-02-21T09:24:04.688Z,115
2018-02-21T09:24:30.216Z,120
2018-02-21T09:24:55.734Z,120
2018-02-21T09:25:21.206Z,120
2018-02-21T09:25:46.700Z,120
2018-02-21T09:26:12.174Z,120
2018-02-21T09:26:37.693Z,120
2018-02-21T09:27:03.230Z,120
2018-02-21T09:27:28.730Z,120
2018-02-21T09:27:54.215Z,115
2018-02-21T09:28:19.753Z,115
2018-02-21T09:28:45.266Z,115
2018-02-21T09:29:10.756Z,120
2018-02-21T09:29:36.229Z,120
2018-02-21T09:31:05.265Z,120
2018-02-21T09:31:30.779Z,120
2018-02-21T09:31:56.245Z,120
2018-02-21T09:32:21.728Z,120
2018-02-21T09:32:47.203Z,120
2018-02-21T09:33:12.816Z,120
2018-02-21T09:33:38.289Z,120
2018-02-21T09:34:03.921Z,120
2018-02-21T09:34:29.385Z,120
2018-02-21T09:34:54.877Z,120
2018-02-21T09:35:20.360Z,120
2018-02-21T09:35:45.807Z,120
2018-02-21T09:36:11.284Z,120
2018-02-21T09:37:35.337Z,120
2018-02-21T09:38:00.832Z,120
2018-02-21T09:38:26.300Z,120
2018-02-21T09:38:51.825Z,120
2018-02-21T09:39:17.325Z,120
2018-02-21T09:39:42.839Z,120
2018-02-21T09:40:08.328Z,120
2018-02-21T09:40:33.819Z,120
2018-02-21T09:40:59.303Z,120
2018-02-21T09:41:24.728Z,120
2018-02-21T09:41:50.204Z,120
2018-02-21T09:42:15.684Z,120
2018-02-21T09:42:41.194Z,120
2018-02-21T09:43:06.720Z,120
2018-02-21T09:43:32.176Z,120
2018-02-21T09:43:57.654Z,120
2018-02-21T09:44:23.132Z,120
2018-02-21T09:44:48.606Z,120
2018-02-21T09:45:14.093Z,120
2018-02-21T09:45:39.573Z,120
2018-02-21T09:46:05.056Z,120
2018-02-21T09:46:30.536Z,120
2018-02-21T09:46:55.997Z,120
2018-02-21T09:47:21.515Z,120
2018-02-21T09:47:47.010Z,120
2018-02-21T09:48:12.455Z,120
2018-02-21T09:48:37.960Z,120
2018-02-21T09:49:03.452Z,120
2018-02-21T09:49:28.953Z,120
2018-02-21T09:49:54.579Z,120
2018-02-21T09:50:20.068Z,120
2018-02-21T09:50:45.572Z,120
2018-02-21T09:51:11.016Z,120
2018-02-21T09:51:36.544Z,120
2018-02-21T09:52:02.026Z,120
2018-02-21T09:52:27.531Z,120
2018-02-21T09:52:52.967Z,120
2018-02-21T09:53:18.465Z,120
2018-02-21T09:53:43.911Z,120
2018-02-21T09:54:09.351Z,120
2018-02-21T09:54:34.899Z,120
2018-02-21T09:55:00.333Z,120
2018-02-21T09:55:25.872Z,120
2018-02-21T09:55:51.421Z,120
2018-02-21T09:56:16.883Z,120
2018-02-21T09:57:46.015Z,120
2018-02-21T09:58:11.518Z,120
2018-02-21T09:58:36.990Z,120
2018-02-21T09:59:02.491Z,120
2018-02-21T09:59:27.974Z,120
2018-02-21T09:59:53.459Z,120
2018-02-21T10:00:18.974Z,120
2018-02-21T10:00:44.472Z,115
2018-02-21T10:01:10.015Z,115
2018-02-21T10:01:35.502Z,115
2018-02-21T10:02:00.982Z,115
2018-02-21T10:02:26.459Z,115
2018-02-21T10:02:51.977Z,115
2018-02-21T10:03:17.486Z,115
2018-02-21T10:03:42.977Z,115
2018-02-21T10:04:08.452Z,115
2018-02-21T10:04:33.966Z,115
2018-02-21T10:04:59.492Z,115
2018-02-21T10:05:24.982Z,115
2018-02-21T10:05:50.441Z,115
2018-02-21T10:06:15.906Z,115
2018-02-21T10:06:41.391Z,115
2018-02-21T10:07:06.899Z,115
2018-02-21T10:07:32.349Z,115
2018-02-21T10:07:57.846Z,115
2018-02-21T10:08:23.371Z,115
2018-02-21T10:08:48.868Z,115
2018-02-21T10:09:14.318Z,115
2018-02-21T10:09:39.804Z,115
2018-02-21T10:10:05.310Z,115
2018-02-21T10:10:30.848Z,115
2018-02-21T10:10:56.375Z,115
2018-02-21T10:11:21.825Z,115
2018-02-21T10:11:47.350Z,115
2018-02-21T10:12:12.849Z,115
2018-02-21T10:12:38.384Z,115
2018-02-21T10:14:07.429Z,115
2018-02-21T10:14:32.908Z,115
2018-02-21T10:14:58.385Z,115
2018-02-21T10:15:23.901Z,115
2018-02-21T10:15:49.391Z,115
2018-02-21T10:17:08.317Z,115
2018-02-21T10:17:33.836Z,115
2018-02-21T10:17:59.341Z,115
2018-02-21T10:18:24.840Z,115
2018-02-21T10:18:50.311Z,115
2018-02-21T10:19:15.805Z,115
2018-02-21T10:19:41.319Z,115
2018-02-21T10:20:06.804Z,115
2018-02-21T10:20:32.291Z,115
2018-02-21T10:21:56.315Z,115
2018-02-21T10:22:21.814Z,115
2018-02-21T10:22:47.360Z,115
2018-02-21T10:23:12.857Z,115
2018-02-21T10:23:38.356Z,115
2018-02-21T10:24:03.855Z,115
2018-02-21T10:24:29.381Z,115
2018-02-21T10:24:54.821Z,115
2018-02-21T10:25:20.298Z,115
2018-02-21T10:25:45.798Z,115
2018-02-21T10:26:11.241Z,115
2018-02-21T10:26:36.736Z,115
2018-02-21T10:27:02.217Z,115
2018-02-21T10:27:27.709Z,115
2018-02-21T10:27:53.223Z,115
2018-02-21T10:28:18.768Z,115
2018-02-21T10:28:44.257Z,115
2018-02-21T10:29:09.734Z,115
2018-02-21T10:29:35.217Z,115
2018-02-21T10:30:54.106Z,115
2018-02-21T10:31:19.595Z,115
2018-02-21T10:31:45.102Z,115
2018-02-21T10:32:10.624Z,115
2018-02-21T10:32:36.088Z,115
2018-02-21T10:33:01.561Z,115
2018-02-21T10:33:27.072Z,115
2018-02-21T10:33:52.525Z,115
2018-02-21T10:34:18.000Z,115
2018-02-21T10:34:43.457Z,115
2018-02-21T10:35:08.978Z,115
2018-02-21T10:35:34.475Z,115
2018-02-21T10:35:59.981Z,115
2018-02-21T10:36:25.462Z,115
2018-02-21T10:36:50.942Z,115
2018-02-21T10:37:16.418Z,115
2018-02-21T10:37:41.944Z,115
2018-02-21T10:38:07.466Z,115
2018-02-21T10:38:32.970Z,115
2018-02-21T10:38:58.445Z,115
2018-02-21T10:39:23.915Z,115
2018-02-21T10:39:49.439Z,115
2018-02-21T10:40:14.914Z,115
2018-02-21T10:40:40.386Z,115
2018-02-21T10:41:05.929Z,115
2018-02-21T10:41:31.420Z,115
2018-02-21T10:41:56.901Z,115
2018-02-21T10:42:22.365Z,115
2018-02-21T10:42:47.832Z,115
2018-02-21T10:43:13.338Z,115
2018-02-21T10:43:38.811Z,115
2018-02-21T10:44:04.270Z,115
2018-02-21T10:44:29.794Z,115
2018-02-21T10:44:55.259Z,115
2018-02-21T10:45:20.726Z,115
2018-02-21T10:45:46.197Z,115
2018-02-21T10:46:11.677Z,115
2018-02-21T10:46:37.169Z,115
2018-02-21T10:47:02.664Z,115
2018-02-21T10:47:28.163Z,115
2018-02-21T10:47:53.648Z,110
2018-02-21T10:48:19.105Z,110
2018-02-21T10:48:44.629Z,110
2018-02-21T10:49:10.077Z,110
2018-02-21T10:49:35.575Z,110
2018-02-21T10:50:01.028Z,110
2018-02-21T10:50:26.611Z,110
2018-02-21T10:50:52.041Z,110
2018-02-21T10:52:05.948Z,110
2018-02-21T10:52:31.424Z,110
2018-02-21T10:52:56.911Z,110
2018-02-21T10:53:22.387Z,110
2018-02-21T10:53:47.881Z,110
2018-02-21T10:54:13.412Z,110
2018-02-21T10:54:38.902Z,110
2018-02-21T10:55:04.470Z,110
2018-02-21T10:55:29.982Z,110
2018-02-21T10:55:55.486Z,110
2018-02-21T10:56:20.975Z,110
2018-02-21T10:57:50.067Z,110
2018-02-21T10:58:15.566Z,110
2018-02-21T10:58:41.059Z,110
2018-02-21T10:59:06.562Z,110
2018-02-21T10:59:32.089Z,110
2018-02-21T10:59:57.591Z,110
2018-02-21T11:00:23.077Z,110
2018-02-21T11:00:48.554Z,110
2018-02-21T11:01:14.033Z,110
2018-02-21T11:01:39.497Z,110
2018-02-21T11:02:04.978Z,110
2018-02-21T11:02:30.473Z,110
2018-02-21T11:02:55.949Z,110
2018-02-21T11:03:21.433Z,110
2018-02-21T11:03:46.932Z,110
2018-02-21T11:04:12.454Z,110
2018-02-21T11:04:37.929Z,110
2018-02-21T11:05:03.390Z,110
2018-02-21T11:05:28.886Z,110
2018-02-21T11:05:54.369Z,110
2018-02-21T11:06:19.833Z,110
2018-02-21T11:06:45.332Z,115
2018-02-21T11:07:10.828Z,115
2018-02-21T11:07:36.305Z,110
2018-02-21T11:08:01.796Z,110
2018-02-21T11:08:27.299Z,110
2018-02-21T11:09:36.965Z,115
2018-02-21T11:10:02.499Z,115
2018-02-21T11:10:27.957Z,110
2018-02-21T11:10:53.433Z,110
2018-02-21T11:11:18.922Z,110
2018-02-21T11:11:44.417Z,110
2018-02-21T11:12:09.925Z,110
2018-02-21T11:12:35.416Z,110
2018-02-21T11:13:00.910Z,110
2018-02-21T11:13:26.402Z,110
2018-02-21T11:14:50.474Z,110
2018-02-21T11:15:15.970Z,110
2018-02-21T11:15:41.474Z,110
2018-02-21T11:16:06.969Z,110
2018-02-21T11:16:32.432Z,110
2018-02-21T11:16:57.931Z,110
2018-02-21T11:17:23.436Z,110
2018-02-21T11:17:48.937Z,105
2018-02-21T11:18:14.389Z,105
2018-02-21T11:18:39.840Z,105
2018-02-21T11:19:05.344Z,105
2018-02-21T11:19:30.819Z,105
2018-02-21T11:20:44.620Z,105
2018-02-21T11:21:10.111Z,105
2018-02-21T11:21:35.607Z,105
2018-02-21T11:22:01.106Z,105
2018-02-21T11:22:26.607Z,105
2018-02-21T11:22:52.099Z,105
2018-02-21T11:23:17.622Z,105
2018-02-21T11:23:43.235Z,105
2018-02-21T11:24:08.603Z,105
2018-02-21T11:24:34.073Z,105
2018-02-21T11:24:59.548Z,105
2018-02-21T11:25:25.040Z,105
2018-02-21T11:26:44.940Z,105
2018-02-21T11:27:10.434Z,110
2018-02-21T11:27:35.889Z,110
2018-02-21T11:28:01.411Z,110
2018-02-21T11:28:26.868Z,110
2018-02-21T11:28:52.401Z,110
2018-02-21T11:29:17.873Z,110
2018-02-21T11:29:43.345Z,110
2018-02-21T11:30:08.836Z,110